sensor_id;sensor_type;location;lat;lon;timestamp;P1;durP1;ratioP1;P2;durP2;ratioP2
53293;SDS011;39181;53.440;5.644;2023-07-31T00:01:15;6.03;;;1.27;;
53293;SDS011;39181;53.440;5.644;2023-07-31T00:03:40;7.35;;;1.15;;
53293;SDS011;39181;53.440;5.644;2023-07-31T00:06:06;5.25;;;0.90;;
53293;SDS011;39181;53.440;5.644;2023-07-31T00:08:31;9.13;;;1.75;;
53293;SDS011;39181;53.440;5.644;2023-07-31T00:10:57;11.18;;;1.98;;
53293;SDS011;39181;53.440;5.644;2023-07-31T00:13:22;6.43;;;1.15;;
53293;SDS011;39181;53.440;5.644;2023-07-31T00:15:48;11.15;;;1.90;;
53293;SDS011;39181;53.440;5.644;2023-07-31T00:18:13;4.78;;;1.00;;
53293;SDS011;39181;53.440;5.644;2023-07-31T00:20:39;7.25;;;1.35;;
53293;SDS011;39181;53.440;5.644;2023-07-31T00:23:05;7.82;;;1.23;;
53293;SDS011;39181;53.440;5.644;2023-07-31T00:25:30;4.75;;;1.10;;
53293;SDS011;39181;53.440;5.644;2023-07-31T00:27:56;5.30;;;1.17;;
53293;SDS011;39181;53.440;5.644;2023-07-31T00:30:21;9.05;;;1.10;;
53293;SDS011;39181;53.440;5.644;2023-07-31T00:32:47;5.32;;;0.95;;
53293;SDS011;39181;53.440;5.644;2023-07-31T00:35:13;5.93;;;0.80;;
53293;SDS011;39181;53.440;5.644;2023-07-31T00:37:38;7.60;;;1.20;;
53293;SDS011;39181;53.440;5.644;2023-07-31T00:40:04;7.50;;;1.55;;
53293;SDS011;39181;53.440;5.644;2023-07-31T00:42:30;10.15;;;1.63;;
53293;SDS011;39181;53.440;5.644;2023-07-31T00:44:56;6.25;;;1.17;;
53293;SDS011;39181;53.440;5.644;2023-07-31T00:47:21;8.48;;;1.75;;
53293;SDS011;39181;53.440;5.644;2023-07-31T00:49:47;7.28;;;1.15;;
53293;SDS011;39181;53.440;5.644;2023-07-31T00:52:13;5.45;;;1.02;;
53293;SDS011;39181;53.440;5.644;2023-07-31T00:54:38;8.27;;;1.45;;
53293;SDS011;39181;53.440;5.644;2023-07-31T00:57:04;7.57;;;1.30;;
53293;SDS011;39181;53.440;5.644;2023-07-31T00:59:32;11.60;;;2.13;;
53293;SDS011;39181;53.440;5.644;2023-07-31T01:01:58;9.40;;;1.58;;
53293;SDS011;39181;53.440;5.644;2023-07-31T01:04:23;9.52;;;1.92;;
53293;SDS011;39181;53.440;5.644;2023-07-31T01:06:56;6.70;;;1.75;;
53293;SDS011;39181;53.440;5.644;2023-07-31T01:12:27;9.75;;;1.70;;
53293;SDS011;39181;53.440;5.644;2023-07-31T01:15:07;6.70;;;1.33;;
53293;SDS011;39181;53.440;5.644;2023-07-31T01:17:37;7.18;;;1.27;;
53293;SDS011;39181;53.440;5.644;2023-07-31T01:20:05;6.90;;;1.30;;
53293;SDS011;39181;53.440;5.644;2023-07-31T01:23:37;7.30;;;1.35;;
53293;SDS011;39181;53.440;5.644;2023-07-31T01:28:20;9.27;;;1.45;;
53293;SDS011;39181;53.440;5.644;2023-07-31T01:30:48;10.25;;;2.17;;
53293;SDS011;39181;53.440;5.644;2023-07-31T01:33:17;9.52;;;1.52;;
53293;SDS011;39181;53.440;5.644;2023-07-31T01:35:43;8.63;;;1.50;;
53293;SDS011;39181;53.440;5.644;2023-07-31T01:38:10;7.05;;;1.65;;
53293;SDS011;39181;53.440;5.644;2023-07-31T01:40:36;4.97;;;1.70;;
53293;SDS011;39181;53.440;5.644;2023-07-31T01:43:01;10.70;;;1.30;;
53293;SDS011;39181;53.440;5.644;2023-07-31T01:45:27;8.93;;;1.30;;
53293;SDS011;39181;53.440;5.644;2023-07-31T01:47:52;12.60;;;1.58;;
53293;SDS011;39181;53.440;5.644;2023-07-31T01:50:18;10.32;;;2.05;;
53293;SDS011;39181;53.440;5.644;2023-07-31T01:52:44;5.80;;;1.23;;
53293;SDS011;39181;53.440;5.644;2023-07-31T01:55:09;4.43;;;1.42;;
53293;SDS011;39181;53.440;5.644;2023-07-31T01:57:36;7.72;;;1.27;;
53293;SDS011;39181;53.440;5.644;2023-07-31T02:00:02;5.63;;;1.40;;
53293;SDS011;39181;53.440;5.644;2023-07-31T02:02:27;7.03;;;1.50;;
53293;SDS011;39181;53.440;5.644;2023-07-31T02:04:53;5.38;;;1.10;;
53293;SDS011;39181;53.440;5.644;2023-07-31T02:07:19;5.60;;;1.20;;
53293;SDS011;39181;53.440;5.644;2023-07-31T02:09:44;7.72;;;1.15;;
53293;SDS011;39181;53.440;5.644;2023-07-31T02:12:11;6.30;;;1.05;;
53293;SDS011;39181;53.440;5.644;2023-07-31T02:14:39;8.32;;;1.45;;
53293;SDS011;39181;53.440;5.644;2023-07-31T02:17:05;12.25;;;1.83;;
53293;SDS011;39181;53.440;5.644;2023-07-31T02:19:30;10.30;;;1.67;;
53293;SDS011;39181;53.440;5.644;2023-07-31T02:21:56;7.30;;;1.25;;
53293;SDS011;39181;53.440;5.644;2023-07-31T02:24:21;6.50;;;1.50;;
53293;SDS011;39181;53.440;5.644;2023-07-31T02:26:47;10.68;;;1.45;;
53293;SDS011;39181;53.440;5.644;2023-07-31T02:29:12;5.63;;;1.13;;
53293;SDS011;39181;53.440;5.644;2023-07-31T02:31:38;7.97;;;2.03;;
53293;SDS011;39181;53.440;5.644;2023-07-31T02:34:04;5.82;;;1.75;;
53293;SDS011;39181;53.440;5.644;2023-07-31T02:36:29;4.80;;;1.33;;
53293;SDS011;39181;53.440;5.644;2023-07-31T02:38:55;6.82;;;1.65;;
53293;SDS011;39181;53.440;5.644;2023-07-31T02:41:20;7.10;;;1.25;;
53293;SDS011;39181;53.440;5.644;2023-07-31T02:43:46;5.60;;;1.17;;
53293;SDS011;39181;53.440;5.644;2023-07-31T02:46:11;8.48;;;1.30;;
53293;SDS011;39181;53.440;5.644;2023-07-31T02:48:37;7.70;;;1.35;;
53293;SDS011;39181;53.440;5.644;2023-07-31T02:51:03;9.18;;;1.17;;
53293;SDS011;39181;53.440;5.644;2023-07-31T02:53:28;6.10;;;1.08;;
53293;SDS011;39181;53.440;5.644;2023-07-31T02:55:54;7.72;;;1.25;;
53293;SDS011;39181;53.440;5.644;2023-07-31T02:58:19;5.20;;;1.33;;
53293;SDS011;39181;53.440;5.644;2023-07-31T03:00:45;7.90;;;1.13;;
53293;SDS011;39181;53.440;5.644;2023-07-31T03:03:10;7.00;;;1.40;;
53293;SDS011;39181;53.440;5.644;2023-07-31T03:05:36;5.85;;;1.23;;
53293;SDS011;39181;53.440;5.644;2023-07-31T03:08:02;7.03;;;0.93;;
53293;SDS011;39181;53.440;5.644;2023-07-31T03:10:29;3.95;;;0.90;;
53293;SDS011;39181;53.440;5.644;2023-07-31T03:12:54;5.78;;;1.60;;
53293;SDS011;39181;53.440;5.644;2023-07-31T03:15:20;6.22;;;1.00;;
53293;SDS011;39181;53.440;5.644;2023-07-31T03:17:46;8.82;;;1.45;;
53293;SDS011;39181;53.440;5.644;2023-07-31T03:20:11;4.05;;;1.00;;
53293;SDS011;39181;53.440;5.644;2023-07-31T03:22:37;9.00;;;1.33;;
53293;SDS011;39181;53.440;5.644;2023-07-31T03:25:03;9.68;;;1.95;;
53293;SDS011;39181;53.440;5.644;2023-07-31T03:27:29;7.00;;;1.27;;
53293;SDS011;39181;53.440;5.644;2023-07-31T03:29:54;6.45;;;1.13;;
53293;SDS011;39181;53.440;5.644;2023-07-31T03:32:20;6.50;;;1.35;;
53293;SDS011;39181;53.440;5.644;2023-07-31T03:34:46;3.85;;;0.93;;
53293;SDS011;39181;53.440;5.644;2023-07-31T03:37:11;11.88;;;1.08;;
53293;SDS011;39181;53.440;5.644;2023-07-31T03:39:37;5.40;;;0.82;;
53293;SDS011;39181;53.440;5.644;2023-07-31T03:42:03;6.68;;;0.80;;
53293;SDS011;39181;53.440;5.644;2023-07-31T03:44:29;5.93;;;1.13;;
53293;SDS011;39181;53.440;5.644;2023-07-31T03:46:54;4.50;;;0.80;;
53293;SDS011;39181;53.440;5.644;2023-07-31T03:49:20;4.95;;;0.70;;
53293;SDS011;39181;53.440;5.644;2023-07-31T03:51:45;3.70;;;1.23;;
53293;SDS011;39181;53.440;5.644;2023-07-31T03:54:11;5.18;;;0.70;;
53293;SDS011;39181;53.440;5.644;2023-07-31T03:56:38;2.60;;;0.60;;
53293;SDS011;39181;53.440;5.644;2023-07-31T03:59:03;3.45;;;0.68;;
53293;SDS011;39181;53.440;5.644;2023-07-31T04:01:29;3.83;;;0.65;;
53293;SDS011;39181;53.440;5.644;2023-07-31T04:03:54;2.75;;;0.70;;
53293;SDS011;39181;53.440;5.644;2023-07-31T04:06:20;3.42;;;0.75;;
53293;SDS011;39181;53.440;5.644;2023-07-31T04:08:46;4.15;;;0.70;;
53293;SDS011;39181;53.440;5.644;2023-07-31T04:11:11;5.80;;;0.70;;
53293;SDS011;39181;53.440;5.644;2023-07-31T04:13:40;5.75;;;0.60;;
53293;SDS011;39181;53.440;5.644;2023-07-31T04:16:06;1.92;;;0.50;;
53293;SDS011;39181;53.440;5.644;2023-07-31T04:18:31;2.80;;;0.50;;
53293;SDS011;39181;53.440;5.644;2023-07-31T04:20:57;1.95;;;0.60;;
53293;SDS011;39181;53.440;5.644;2023-07-31T04:23:23;5.03;;;0.50;;
53293;SDS011;39181;53.440;5.644;2023-07-31T04:25:50;3.88;;;0.60;;
53293;SDS011;39181;53.440;5.644;2023-07-31T04:28:15;2.22;;;0.68;;
53293;SDS011;39181;53.440;5.644;2023-07-31T04:30:41;4.15;;;0.70;;
53293;SDS011;39181;53.440;5.644;2023-07-31T04:33:07;1.48;;;0.52;;
53293;SDS011;39181;53.440;5.644;2023-07-31T04:35:32;2.17;;;0.52;;
53293;SDS011;39181;53.440;5.644;2023-07-31T04:37:58;1.70;;;0.90;;
53293;SDS011;39181;53.440;5.644;2023-07-31T04:40:23;2.05;;;0.73;;
53293;SDS011;39181;53.440;5.644;2023-07-31T04:42:49;3.00;;;0.70;;
53293;SDS011;39181;53.440;5.644;2023-07-31T04:45:15;2.72;;;0.90;;
53293;SDS011;39181;53.440;5.644;2023-07-31T04:47:40;2.13;;;0.80;;
53293;SDS011;39181;53.440;5.644;2023-07-31T04:50:06;2.58;;;0.73;;
53293;SDS011;39181;53.440;5.644;2023-07-31T04:52:32;2.15;;;0.80;;
53293;SDS011;39181;53.440;5.644;2023-07-31T04:54:57;5.35;;;0.82;;
53293;SDS011;39181;53.440;5.644;2023-07-31T04:57:23;1.35;;;0.90;;
53293;SDS011;39181;53.440;5.644;2023-07-31T04:59:48;1.83;;;0.88;;
53293;SDS011;39181;53.440;5.644;2023-07-31T05:02:14;3.28;;;0.93;;
53293;SDS011;39181;53.440;5.644;2023-07-31T05:04:40;4.97;;;0.80;;
53293;SDS011;39181;53.440;5.644;2023-07-31T05:07:05;3.70;;;0.85;;
53293;SDS011;39181;53.440;5.644;2023-07-31T05:09:31;4.63;;;0.82;;
53293;SDS011;39181;53.440;5.644;2023-07-31T05:11:57;3.08;;;0.98;;
53293;SDS011;39181;53.440;5.644;2023-07-31T05:14:22;2.42;;;1.15;;
53293;SDS011;39181;53.440;5.644;2023-07-31T05:16:48;2.33;;;1.23;;
53293;SDS011;39181;53.440;5.644;2023-07-31T05:19:14;1.58;;;0.65;;
53293;SDS011;39181;53.440;5.644;2023-07-31T05:21:39;3.42;;;0.93;;
53293;SDS011;39181;53.440;5.644;2023-07-31T05:24:08;2.28;;;0.93;;
53293;SDS011;39181;53.440;5.644;2023-07-31T05:26:34;2.55;;;0.98;;
53293;SDS011;39181;53.440;5.644;2023-07-31T05:29:00;3.35;;;0.77;;
53293;SDS011;39181;53.440;5.644;2023-07-31T05:31:25;2.25;;;0.70;;
53293;SDS011;39181;53.440;5.644;2023-07-31T05:33:51;1.98;;;0.80;;
53293;SDS011;39181;53.440;5.644;2023-07-31T05:36:17;2.22;;;0.88;;
53293;SDS011;39181;53.440;5.644;2023-07-31T05:38:42;3.88;;;1.15;;
53293;SDS011;39181;53.440;5.644;2023-07-31T05:41:09;2.83;;;0.90;;
53293;SDS011;39181;53.440;5.644;2023-07-31T05:43:36;1.85;;;0.90;;
53293;SDS011;39181;53.440;5.644;2023-07-31T05:46:02;2.22;;;0.70;;
53293;SDS011;39181;53.440;5.644;2023-07-31T05:48:27;1.17;;;0.70;;
53293;SDS011;39181;53.440;5.644;2023-07-31T05:50:53;1.80;;;0.80;;
53293;SDS011;39181;53.440;5.644;2023-07-31T05:53:18;2.50;;;0.98;;
53293;SDS011;39181;53.440;5.644;2023-07-31T05:55:44;2.15;;;0.30;;
53293;SDS011;39181;53.440;5.644;2023-07-31T05:58:10;2.03;;;0.47;;
53293;SDS011;39181;53.440;5.644;2023-07-31T06:00:35;1.65;;;0.20;;
53293;SDS011;39181;53.440;5.644;2023-07-31T06:03:01;0.95;;;0.22;;
53293;SDS011;39181;53.440;5.644;2023-07-31T06:05:27;2.45;;;0.20;;
53293;SDS011;39181;53.440;5.644;2023-07-31T06:07:54;2.33;;;0.40;;
53293;SDS011;39181;53.440;5.644;2023-07-31T06:10:20;0.30;;;0.10;;
53293;SDS011;39181;53.440;5.644;2023-07-31T06:12:46;0.70;;;0.40;;
53293;SDS011;39181;53.440;5.644;2023-07-31T06:15:12;1.92;;;0.50;;
53293;SDS011;39181;53.440;5.644;2023-07-31T06:17:37;0.80;;;0.28;;
53293;SDS011;39181;53.440;5.644;2023-07-31T06:20:03;2.40;;;0.40;;
53293;SDS011;39181;53.440;5.644;2023-07-31T06:22:31;0.52;;;0.30;;
53293;SDS011;39181;53.440;5.644;2023-07-31T06:24:57;1.23;;;0.32;;
53293;SDS011;39181;53.440;5.644;2023-07-31T06:27:23;4.57;;;0.60;;
53293;SDS011;39181;53.440;5.644;2023-07-31T06:29:48;3.67;;;0.70;;
53293;SDS011;39181;53.440;5.644;2023-07-31T06:32:14;4.28;;;1.00;;
53293;SDS011;39181;53.440;5.644;2023-07-31T06:34:39;1.67;;;0.70;;
53293;SDS011;39181;53.440;5.644;2023-07-31T06:37:05;2.13;;;1.00;;
53293;SDS011;39181;53.440;5.644;2023-07-31T06:39:31;2.97;;;0.88;;
53293;SDS011;39181;53.440;5.644;2023-07-31T06:41:56;8.05;;;1.00;;
53293;SDS011;39181;53.440;5.644;2023-07-31T06:44:22;4.22;;;1.00;;
53293;SDS011;39181;53.440;5.644;2023-07-31T06:46:47;8.30;;;0.90;;
53293;SDS011;39181;53.440;5.644;2023-07-31T06:49:13;6.13;;;0.82;;
53293;SDS011;39181;53.440;5.644;2023-07-31T06:51:40;3.00;;;0.80;;
53293;SDS011;39181;53.440;5.644;2023-07-31T06:54:06;3.90;;;0.90;;
53293;SDS011;39181;53.440;5.644;2023-07-31T06:56:32;4.07;;;1.15;;
53293;SDS011;39181;53.440;5.644;2023-07-31T06:58:58;3.53;;;0.90;;
53293;SDS011;39181;53.440;5.644;2023-07-31T07:01:27;7.38;;;0.70;;
53293;SDS011;39181;53.440;5.644;2023-07-31T07:03:54;1.75;;;0.50;;
53293;SDS011;39181;53.440;5.644;2023-07-31T07:06:19;8.38;;;0.95;;
53293;SDS011;39181;53.440;5.644;2023-07-31T07:08:45;4.82;;;0.38;;
53293;SDS011;39181;53.440;5.644;2023-07-31T07:11:11;4.05;;;0.60;;
53293;SDS011;39181;53.440;5.644;2023-07-31T07:13:36;2.90;;;0.50;;
53293;SDS011;39181;53.440;5.644;2023-07-31T07:16:02;6.47;;;0.80;;
53293;SDS011;39181;53.440;5.644;2023-07-31T07:18:27;5.78;;;0.77;;
53293;SDS011;39181;53.440;5.644;2023-07-31T07:20:53;6.88;;;1.40;;
53293;SDS011;39181;53.440;5.644;2023-07-31T07:23:19;8.45;;;1.38;;
53293;SDS011;39181;53.440;5.644;2023-07-31T07:25:48;8.18;;;2.03;;
53293;SDS011;39181;53.440;5.644;2023-07-31T07:28:14;9.25;;;1.83;;
53293;SDS011;39181;53.440;5.644;2023-07-31T07:30:40;10.45;;;1.75;;
53293;SDS011;39181;53.440;5.644;2023-07-31T07:33:05;8.35;;;1.67;;
53293;SDS011;39181;53.440;5.644;2023-07-31T07:35:34;7.30;;;1.63;;
53293;SDS011;39181;53.440;5.644;2023-07-31T07:38:01;7.95;;;1.42;;
53293;SDS011;39181;53.440;5.644;2023-07-31T07:40:27;7.88;;;1.60;;
53293;SDS011;39181;53.440;5.644;2023-07-31T07:42:53;7.55;;;1.75;;
53293;SDS011;39181;53.440;5.644;2023-07-31T07:45:19;4.53;;;1.27;;
53293;SDS011;39181;53.440;5.644;2023-07-31T07:47:44;6.63;;;1.85;;
53293;SDS011;39181;53.440;5.644;2023-07-31T07:50:10;3.97;;;1.10;;
53293;SDS011;39181;53.440;5.644;2023-07-31T07:52:36;8.20;;;1.10;;
53293;SDS011;39181;53.440;5.644;2023-07-31T07:55:02;5.53;;;1.33;;
53293;SDS011;39181;53.440;5.644;2023-07-31T07:57:28;4.30;;;1.23;;
53293;SDS011;39181;53.440;5.644;2023-07-31T07:59:54;8.18;;;1.50;;
53293;SDS011;39181;53.440;5.644;2023-07-31T08:02:20;4.63;;;1.25;;
53293;SDS011;39181;53.440;5.644;2023-07-31T08:04:45;6.85;;;1.23;;
53293;SDS011;39181;53.440;5.644;2023-07-31T08:07:11;6.18;;;1.80;;
53293;SDS011;39181;53.440;5.644;2023-07-31T08:09:37;6.15;;;1.35;;
53293;SDS011;39181;53.440;5.644;2023-07-31T08:12:03;7.57;;;1.63;;
53293;SDS011;39181;53.440;5.644;2023-07-31T08:14:29;8.07;;;1.95;;
53293;SDS011;39181;53.440;5.644;2023-07-31T08:16:55;6.85;;;1.38;;
53293;SDS011;39181;53.440;5.644;2023-07-31T08:19:21;7.75;;;1.40;;
53293;SDS011;39181;53.440;5.644;2023-07-31T08:21:46;4.13;;;1.50;;
53293;SDS011;39181;53.440;5.644;2023-07-31T08:24:12;10.20;;;2.05;;
53293;SDS011;39181;53.440;5.644;2023-07-31T08:26:37;9.20;;;2.10;;
53293;SDS011;39181;53.440;5.644;2023-07-31T08:29:03;10.70;;;2.25;;
53293;SDS011;39181;53.440;5.644;2023-07-31T08:31:29;11.82;;;2.10;;
53293;SDS011;39181;53.440;5.644;2023-07-31T08:33:54;8.20;;;1.83;;
53293;SDS011;39181;53.440;5.644;2023-07-31T08:36:21;9.35;;;2.13;;
53293;SDS011;39181;53.440;5.644;2023-07-31T08:38:46;8.30;;;1.75;;
53293;SDS011;39181;53.440;5.644;2023-07-31T08:41:12;8.73;;;2.25;;
53293;SDS011;39181;53.440;5.644;2023-07-31T08:43:38;9.43;;;2.35;;
53293;SDS011;39181;53.440;5.644;2023-07-31T08:46:04;12.32;;;2.13;;
53293;SDS011;39181;53.440;5.644;2023-07-31T08:48:31;7.57;;;2.55;;
53293;SDS011;39181;53.440;5.644;2023-07-31T08:50:57;10.55;;;2.42;;
53293;SDS011;39181;53.440;5.644;2023-07-31T08:53:23;11.90;;;2.63;;
53293;SDS011;39181;53.440;5.644;2023-07-31T08:55:49;4.88;;;1.98;;
53293;SDS011;39181;53.440;5.644;2023-07-31T08:58:17;7.93;;;1.92;;
53293;SDS011;39181;53.440;5.644;2023-07-31T09:00:44;9.30;;;2.50;;
53293;SDS011;39181;53.440;5.644;2023-07-31T09:03:15;8.75;;;2.40;;
53293;SDS011;39181;53.440;5.644;2023-07-31T09:05:43;8.52;;;2.22;;
53293;SDS011;39181;53.440;5.644;2023-07-31T09:08:12;6.00;;;1.90;;
53293;SDS011;39181;53.440;5.644;2023-07-31T09:10:41;8.90;;;2.30;;
53293;SDS011;39181;53.440;5.644;2023-07-31T09:13:08;10.50;;;2.15;;
53293;SDS011;39181;53.440;5.644;2023-07-31T09:15:35;12.55;;;2.45;;
53293;SDS011;39181;53.440;5.644;2023-07-31T09:18:01;13.93;;;2.20;;
53293;SDS011;39181;53.440;5.644;2023-07-31T09:20:28;9.75;;;2.38;;
53293;SDS011;39181;53.440;5.644;2023-07-31T09:22:53;8.23;;;2.25;;
53293;SDS011;39181;53.440;5.644;2023-07-31T09:25:21;5.32;;;1.48;;
53293;SDS011;39181;53.440;5.644;2023-07-31T09:27:52;10.88;;;2.45;;
53293;SDS011;39181;53.440;5.644;2023-07-31T09:30:19;12.35;;;2.05;;
53293;SDS011;39181;53.440;5.644;2023-07-31T09:32:46;7.07;;;1.58;;
53293;SDS011;39181;53.440;5.644;2023-07-31T09:35:14;7.30;;;1.70;;
53293;SDS011;39181;53.440;5.644;2023-07-31T09:37:52;15.23;;;1.70;;
53293;SDS011;39181;53.440;5.644;2023-07-31T09:40:28;5.25;;;1.67;;
53293;SDS011;39181;53.440;5.644;2023-07-31T09:42:59;6.95;;;1.58;;
53293;SDS011;39181;53.440;5.644;2023-07-31T09:45:26;6.25;;;1.65;;
53293;SDS011;39181;53.440;5.644;2023-07-31T09:47:52;8.40;;;1.85;;
53293;SDS011;39181;53.440;5.644;2023-07-31T09:50:19;5.90;;;1.48;;
53293;SDS011;39181;53.440;5.644;2023-07-31T09:52:46;8.20;;;1.90;;
53293;SDS011;39181;53.440;5.644;2023-07-31T09:55:11;6.95;;;1.65;;
53293;SDS011;39181;53.440;5.644;2023-07-31T09:57:39;7.70;;;1.73;;
53293;SDS011;39181;53.440;5.644;2023-07-31T10:00:09;5.85;;;1.30;;
53293;SDS011;39181;53.440;5.644;2023-07-31T10:02:36;7.07;;;1.95;;
53293;SDS011;39181;53.440;5.644;2023-07-31T10:05:03;5.65;;;1.70;;
53293;SDS011;39181;53.440;5.644;2023-07-31T10:07:30;7.28;;;2.08;;
53293;SDS011;39181;53.440;5.644;2023-07-31T10:09:59;6.13;;;1.38;;
53293;SDS011;39181;53.440;5.644;2023-07-31T10:12:26;5.70;;;1.30;;
53293;SDS011;39181;53.440;5.644;2023-07-31T10:14:55;5.45;;;1.30;;
53293;SDS011;39181;53.440;5.644;2023-07-31T10:17:21;3.65;;;1.20;;
53293;SDS011;39181;53.440;5.644;2023-07-31T10:19:48;3.88;;;1.02;;
53293;SDS011;39181;53.440;5.644;2023-07-31T10:22:14;3.28;;;1.10;;
53293;SDS011;39181;53.440;5.644;2023-07-31T10:24:43;4.88;;;1.02;;
53293;SDS011;39181;53.440;5.644;2023-07-31T10:27:10;6.72;;;1.17;;
53293;SDS011;39181;53.440;5.644;2023-07-31T10:29:37;6.03;;;1.50;;
53293;SDS011;39181;53.440;5.644;2023-07-31T10:32:06;10.00;;;1.30;;
53293;SDS011;39181;53.440;5.644;2023-07-31T10:34:35;4.97;;;1.30;;
53293;SDS011;39181;53.440;5.644;2023-07-31T10:40:23;8.65;;;1.05;;
53293;SDS011;39181;53.440;5.644;2023-07-31T10:42:50;5.28;;;1.13;;
53293;SDS011;39181;53.440;5.644;2023-07-31T10:45:34;4.72;;;1.10;;
53293;SDS011;39181;53.440;5.644;2023-07-31T10:48:05;5.93;;;1.48;;
53293;SDS011;39181;53.440;5.644;2023-07-31T10:50:33;6.95;;;1.20;;
53293;SDS011;39181;53.440;5.644;2023-07-31T10:53:03;4.57;;;1.00;;
53293;SDS011;39181;53.440;5.644;2023-07-31T10:55:30;5.28;;;1.17;;
53293;SDS011;39181;53.440;5.644;2023-07-31T10:58:06;4.70;;;1.05;;
53293;SDS011;39181;53.440;5.644;2023-07-31T11:00:33;5.38;;;1.27;;
53293;SDS011;39181;53.440;5.644;2023-07-31T11:05:45;6.10;;;1.20;;
53293;SDS011;39181;53.440;5.644;2023-07-31T11:08:24;3.67;;;1.13;;
53293;SDS011;39181;53.440;5.644;2023-07-31T11:16:11;2.90;;;0.70;;
53293;SDS011;39181;53.440;5.644;2023-07-31T11:18:38;7.80;;;1.00;;
53293;SDS011;39181;53.440;5.644;2023-07-31T11:21:08;7.28;;;1.02;;
53293;SDS011;39181;53.440;5.644;2023-07-31T11:23:38;7.22;;;1.42;;
53293;SDS011;39181;53.440;5.644;2023-07-31T11:26:04;11.38;;;1.85;;
53293;SDS011;39181;53.440;5.644;2023-07-31T11:28:32;7.38;;;1.20;;
53293;SDS011;39181;53.440;5.644;2023-07-31T11:30:59;5.75;;;1.20;;
53293;SDS011;39181;53.440;5.644;2023-07-31T11:33:25;3.45;;;1.17;;
53293;SDS011;39181;53.440;5.644;2023-07-31T11:35:51;9.80;;;1.70;;
53293;SDS011;39181;53.440;5.644;2023-07-31T11:38:24;5.22;;;1.23;;
53293;SDS011;39181;53.440;5.644;2023-07-31T11:40:57;6.65;;;1.27;;
53293;SDS011;39181;53.440;5.644;2023-07-31T11:43:25;7.85;;;1.50;;
53293;SDS011;39181;53.440;5.644;2023-07-31T11:45:55;6.60;;;1.42;;
53293;SDS011;39181;53.440;5.644;2023-07-31T11:48:29;6.55;;;1.25;;
53293;SDS011;39181;53.440;5.644;2023-07-31T11:50:59;4.72;;;1.85;;
53293;SDS011;39181;53.440;5.644;2023-07-31T11:53:31;8.48;;;1.70;;
53293;SDS011;39181;53.440;5.644;2023-07-31T11:56:03;6.13;;;1.50;;
53293;SDS011;39181;53.440;5.644;2023-07-31T11:58:31;6.47;;;1.30;;
53293;SDS011;39181;53.440;5.644;2023-07-31T12:00:58;3.13;;;1.02;;
53293;SDS011;39181;53.440;5.644;2023-07-31T12:03:25;4.63;;;1.30;;
53293;SDS011;39181;53.440;5.644;2023-07-31T12:05:52;9.45;;;1.70;;
53293;SDS011;39181;53.440;5.644;2023-07-31T12:08:20;6.30;;;1.45;;
53293;SDS011;39181;53.440;5.644;2023-07-31T12:10:47;7.55;;;1.70;;
53293;SDS011;39181;53.440;5.644;2023-07-31T12:13:23;5.50;;;1.40;;
53293;SDS011;39181;53.440;5.644;2023-07-31T12:15:57;8.20;;;1.45;;
53293;SDS011;39181;53.440;5.644;2023-07-31T12:18:29;7.13;;;1.70;;
53293;SDS011;39181;53.440;5.644;2023-07-31T12:20:59;6.55;;;1.77;;
53293;SDS011;39181;53.440;5.644;2023-07-31T12:23:30;5.55;;;1.35;;
53293;SDS011;39181;53.440;5.644;2023-07-31T12:26:15;5.28;;;1.40;;
53293;SDS011;39181;53.440;5.644;2023-07-31T12:28:48;8.50;;;1.40;;
53293;SDS011;39181;53.440;5.644;2023-07-31T12:31:16;5.57;;;1.60;;
53293;SDS011;39181;53.440;5.644;2023-07-31T12:33:43;7.07;;;1.35;;
53293;SDS011;39181;53.440;5.644;2023-07-31T12:36:13;8.82;;;1.75;;
53293;SDS011;39181;53.440;5.644;2023-07-31T12:38:40;9.38;;;1.80;;
53293;SDS011;39181;53.440;5.644;2023-07-31T12:41:06;8.98;;;1.70;;
53293;SDS011;39181;53.440;5.644;2023-07-31T12:43:36;7.45;;;1.52;;
53293;SDS011;39181;53.440;5.644;2023-07-31T12:46:05;6.78;;;1.70;;
53293;SDS011;39181;53.440;5.644;2023-07-31T12:48:32;7.70;;;1.88;;
53293;SDS011;39181;53.440;5.644;2023-07-31T12:50:58;6.93;;;1.85;;
53293;SDS011;39181;53.440;5.644;2023-07-31T12:53:24;8.45;;;2.20;;
53293;SDS011;39181;53.440;5.644;2023-07-31T12:55:49;7.78;;;2.03;;
53293;SDS011;39181;53.440;5.644;2023-07-31T12:58:15;7.18;;;2.13;;
53293;SDS011;39181;53.440;5.644;2023-07-31T13:00:41;8.80;;;1.75;;
53293;SDS011;39181;53.440;5.644;2023-07-31T13:03:07;7.68;;;2.20;;
53293;SDS011;39181;53.440;5.644;2023-07-31T13:05:33;9.10;;;2.00;;
53293;SDS011;39181;53.440;5.644;2023-07-31T13:07:58;11.52;;;2.50;;
53293;SDS011;39181;53.440;5.644;2023-07-31T13:10:24;5.68;;;1.77;;
53293;SDS011;39181;53.440;5.644;2023-07-31T13:12:51;11.77;;;1.88;;
53293;SDS011;39181;53.440;5.644;2023-07-31T13:15:17;8.80;;;2.08;;
53293;SDS011;39181;53.440;5.644;2023-07-31T13:17:43;9.98;;;2.30;;
53293;SDS011;39181;53.440;5.644;2023-07-31T13:20:08;8.05;;;2.28;;
53293;SDS011;39181;53.440;5.644;2023-07-31T13:22:34;12.82;;;2.28;;
53293;SDS011;39181;53.440;5.644;2023-07-31T13:24:59;6.53;;;1.83;;
53293;SDS011;39181;53.440;5.644;2023-07-31T13:27:25;7.70;;;2.35;;
53293;SDS011;39181;53.440;5.644;2023-07-31T13:29:51;10.80;;;2.10;;
53293;SDS011;39181;53.440;5.644;2023-07-31T13:32:17;9.88;;;2.05;;
53293;SDS011;39181;53.440;5.644;2023-07-31T13:34:44;14.80;;;2.63;;
53293;SDS011;39181;53.440;5.644;2023-07-31T13:37:10;14.25;;;2.50;;
53293;SDS011;39181;53.440;5.644;2023-07-31T13:39:36;8.00;;;2.20;;
53293;SDS011;39181;53.440;5.644;2023-07-31T13:42:05;8.13;;;2.33;;
53293;SDS011;39181;53.440;5.644;2023-07-31T13:44:33;10.57;;;2.20;;
53293;SDS011;39181;53.440;5.644;2023-07-31T13:47:02;10.63;;;2.70;;
53293;SDS011;39181;53.440;5.644;2023-07-31T13:49:28;9.38;;;2.30;;
53293;SDS011;39181;53.440;5.644;2023-07-31T13:51:54;13.27;;;2.55;;
53293;SDS011;39181;53.440;5.644;2023-07-31T13:54:20;9.55;;;2.80;;
53293;SDS011;39181;53.440;5.644;2023-07-31T13:56:46;9.20;;;2.40;;
53293;SDS011;39181;53.440;5.644;2023-07-31T13:59:12;7.93;;;2.33;;
53293;SDS011;39181;53.440;5.644;2023-07-31T14:01:40;10.00;;;2.30;;
53293;SDS011;39181;53.440;5.644;2023-07-31T14:04:05;11.63;;;2.53;;
53293;SDS011;39181;53.440;5.644;2023-07-31T14:06:31;10.75;;;2.58;;
53293;SDS011;39181;53.440;5.644;2023-07-31T14:08:56;12.05;;;2.97;;
53293;SDS011;39181;53.440;5.644;2023-07-31T14:11:22;10.05;;;3.33;;
53293;SDS011;39181;53.440;5.644;2023-07-31T14:13:48;12.57;;;2.85;;
53293;SDS011;39181;53.440;5.644;2023-07-31T14:16:15;9.23;;;2.88;;
53293;SDS011;39181;53.440;5.644;2023-07-31T14:18:41;14.55;;;3.38;;
53293;SDS011;39181;53.440;5.644;2023-07-31T14:21:06;12.23;;;2.67;;
53293;SDS011;39181;53.440;5.644;2023-07-31T14:23:32;10.95;;;2.92;;
53293;SDS011;39181;53.440;5.644;2023-07-31T14:25:59;11.88;;;2.60;;
53293;SDS011;39181;53.440;5.644;2023-07-31T14:28:24;10.73;;;2.58;;
53293;SDS011;39181;53.440;5.644;2023-07-31T14:30:50;13.68;;;2.75;;
53293;SDS011;39181;53.440;5.644;2023-07-31T14:33:15;13.43;;;2.50;;
53293;SDS011;39181;53.440;5.644;2023-07-31T14:35:41;17.10;;;3.30;;
53293;SDS011;39181;53.440;5.644;2023-07-31T14:38:06;13.57;;;2.35;;
53293;SDS011;39181;53.440;5.644;2023-07-31T14:40:32;13.88;;;2.88;;
53293;SDS011;39181;53.440;5.644;2023-07-31T14:42:57;11.25;;;3.28;;
53293;SDS011;39181;53.440;5.644;2023-07-31T14:45:23;13.27;;;2.80;;
53293;SDS011;39181;53.440;5.644;2023-07-31T14:47:48;11.75;;;2.80;;
53293;SDS011;39181;53.440;5.644;2023-07-31T14:50:15;13.95;;;2.50;;
53293;SDS011;39181;53.440;5.644;2023-07-31T14:52:41;8.45;;;2.58;;
53293;SDS011;39181;53.440;5.644;2023-07-31T14:55:06;15.98;;;3.13;;
53293;SDS011;39181;53.440;5.644;2023-07-31T14:57:33;10.40;;;2.08;;
53293;SDS011;39181;53.440;5.644;2023-07-31T14:59:59;10.80;;;2.67;;